Chesapeake, VA

12:28 PM EDT on Octobre 02, 2014 (GMT -0400)
South Greenbrier | Change Station
CLOSE
Current Station
Personal Weather Stations
Location: Chesapeake, VA
Elevation: 33 ft
Nearby Weather Stations

Elev 33 ft 36.74 °N, 76.22 °W | Updated 4 seconds ago

Overcast
Overcast
72.4 °F
Feels Like 74 °F
N
2.0
Hangin Variable Hangin from NNW
Gusts 5.0 mph

Ngayon
High -- | Low -- °F
--% Chance of Precip.
Yesterday
High -- | Low -- °F
Precip. -- sa
7:01 AM 6:46 PM
Unang Quarter, 60% visible
Pwersa 30.12 sa
Paningin 10.0 milya
Mga Ulap Few 2300 ft
Scattered Clouds 3100 ft
Mostly Cloudy 4700 ft
HeatIndex 74 °F
Hamog 64 °F
Humidito 76%
Rainfall 0.00 sa
Snow Depth Not available.
UV 4 out of 12
Pollen 3.20 out of 12
Ozone Mabuti
PM2.5 Mabuti
Flu Activity Not available.
METAR KNFE 021556Z AUTO 02006KT 10SM FEW023 SCT031 BKN047 25/17 A3011 RMK AO2 SLP197 T02500172

More Conditions Fewer Conditions

Pwersa 30.12 sa
Paningin 10.0 milya
Mga Ulap Few 2300 ft
Scattered Clouds 3100 ft
Mostly Cloudy 4700 ft
HeatIndex 74 °F
Hamog 64 °F
Humidito 76%
Rainfall 0.00 sa
Snow Depth Not available.
UV 4 out of 12
Pollen 3.20 out of 12
Ozone Mabuti
PM2.5 Mabuti
Flu Activity Not available.
METAR KNFE 021556Z AUTO 02006KT 10SM FEW023 SCT031 BKN047 25/17 A3011 RMK AO2 SLP197 T02500172

More Conditions Fewer Conditions

10-Day Weather Forecast

Almanac

Astronomiya

Oct. 02, 2014 Rise Set
Actual Time 7:01 AM EDT 6:46 PM EDT
Civil Twilight 6:35 AM EDT 7:12 PM EDT
Nautical Twilight 6:05 AM EDT 7:42 PM EDT
Astronomical Twilight 5:34 AM EDT 8:12 PM EDT
Buwan 2:43 PM EDT 12:24 AM EDT
Length Of Visible Light 12h 37m
Haba ng Araw
11h 45m
Tomorrow will be 2m 18s shorter.
Unang Quarter, 60% of the Moon is Illuminated
Ngayon
Unang Quarter
Oct 8
Kabilugan ng Buwan
Oct 15
Last Quarter
Oct 23
New
Oct 30
Unang Quarter

Today's Extremes

State Highs State Lows

Community

WunderPhotos

Upload Photos

1,758,290 photos uploaded!

WunderBlogs® & News

Nearby

Air Quality

  Air Quality AQ Index Pollutant
Yesterday Mabuti
OZONE
Yesterday Mabuti
PM2.5
Current Mabuti
OZONE
Current Mabuti
PM2.5
Huwebes Mabuti
PM2.5

Snow Depth

Station Depth Elevation
No new snow has been reported.

Earthquake Activity

Siyudad Distance Mag. Time & Date
No recent earthquake activity has been reported nearby.
Minimum magnitude displayed is 2.5.

Coastal Water Temperatures

lugar Temparatura
Chesapeake Bay Bridge Tunnel, VA 73.0 °F
Kiptopeke, VA 75.9 °F
Money Point, VA 73.9 °F
Sewells Point, VA 73.0 °F

Nearby Weather Stations